Time;durP1;ratioP1;P1;durP2;ratioP2;P2;SDS_P1;SDS_P2;PMS_P1;PMS_P2;Temp;Humidity;BMP_temperature;BMP_pressure;BME280_temperature;BME280_humidity;BME280_pressure;Samples;Min_cycle;Max_cycle;Signal;HPM_P1;HPM_P2
2023/12/05 00:00:24;;;;;;;37.47;16.97;;;;;;;;;;5051016;28;20040;-90
2023/12/05 00:02:49;;;;;;;36.88;19.23;;;;;;;;;;5053143;28;20051;-93
2023/12/05 00:05:14;;;;;;;39.03;18.87;;;;;;;;;;5053793;28;20036;-93
2023/12/05 00:07:39;;;;;;;43.90;21.27;;;;;;;;;;5052904;28;20023;-94
2023/12/05 00:10:05;;;;;;;41.83;20.67;;;;;;;;;;5034962;28;20461;-94
2023/12/05 00:12:30;;;;;;;40.67;19.80;;;;;;;;;;5052980;28;20111;-94
2023/12/05 00:14:55;;;;;;;37.53;19.17;;;;;;;;;;5035640;28;20072;-94
2023/12/05 00:17:20;;;;;;;42.23;20.50;;;;;;;;;;5053741;28;20032;-94
2023/12/05 00:19:46;;;;;;;43.30;21.23;;;;;;;;;;5053502;28;20036;-94
2023/12/05 00:22:11;;;;;;;38.50;19.33;;;;;;;;;;5034587;28;20129;-94
2023/12/05 00:24:36;;;;;;;38.07;19.07;;;;;;;;;;5053238;28;20552;-93
2023/12/05 00:27:01;;;;;;;43.00;19.90;;;;;;;;;;5053272;28;20024;-93
2023/12/05 00:29:26;;;;;;;42.30;19.50;;;;;;;;;;5054242;28;20100;-94
2023/12/05 00:31:52;;;;;;;38.53;19.00;;;;;;;;;;5053150;28;20931;-94
2023/12/05 00:34:17;;;;;;;36.17;19.17;;;;;;;;;;5036337;28;20051;-94
2023/12/05 00:36:42;;;;;;;35.87;17.97;;;;;;;;;;5054597;28;20108;-94
2023/12/05 00:39:07;;;;;;;39.20;19.37;;;;;;;;;;5054632;28;20362;-94
2023/12/05 00:41:33;;;;;;;45.63;21.67;;;;;;;;;;5056754;28;20029;-95
2023/12/05 00:44:00;;;;;;;40.47;20.67;;;;;;;;;;5057198;28;20029;-95
2023/12/05 00:46:26;;;;;;;40.75;20.20;;;;;;;;;;5040162;28;20021;-95
2023/12/05 00:48:51;;;;;;;45.03;21.10;;;;;;;;;;5039573;28;20104;-95
2023/12/05 00:51:17;;;;;;;36.13;18.27;;;;;;;;;;5053977;28;20492;-94
2023/12/05 00:53:42;;;;;;;36.93;18.63;;;;;;;;;;5054283;28;20035;-95
2023/12/05 00:56:10;;;;;;;40.03;20.33;;;;;;;;;;5053997;28;20067;-94
2023/12/05 00:58:36;;;;;;;38.88;18.65;;;;;;;;;;5055117;28;20074;-94
2023/12/05 01:01:01;;;;;;;44.67;21.23;;;;;;;;;;5058776;28;20032;-94
2023/12/05 01:03:26;;;;;;;32.10;15.70;;;;;;;;;;5049940;28;20357;-94
2023/12/05 01:05:51;;;;;;;39.50;19.50;;;;;;;;;;5053664;28;20118;-94
2023/12/05 01:08:17;;;;;;;31.27;16.53;;;;;;;;;;5053434;28;20020;-94
2023/12/05 01:10:42;;;;;;;45.60;21.87;;;;;;;;;;5052430;28;20025;-94
2023/12/05 01:13:07;;;;;;;40.33;20.13;;;;;;;;;;5052955;28;20028;-94
2023/12/05 01:15:33;;;;;;;40.37;19.87;;;;;;;;;;5052847;28;20025;-94
2023/12/05 01:17:58;;;;;;;41.30;20.13;;;;;;;;;;5050755;28;20021;-94
2023/12/05 01:20:29;;;;;;;41.70;19.20;;;;;;;;;;5052601;28;20078;-92
2023/12/05 01:22:55;;;;;;;40.10;19.98;;;;;;;;;;5052319;28;20051;-94
2023/12/05 01:25:20;;;;;;;41.13;20.63;;;;;;;;;;5035329;28;20017;-93
2023/12/05 01:27:45;;;;;;;43.13;20.90;;;;;;;;;;5052866;28;20025;-93
2023/12/05 01:30:11;;;;;;;44.73;21.10;;;;;;;;;;5053046;28;20072;-92
2023/12/05 01:32:36;;;;;;;39.20;18.80;;;;;;;;;;5057642;28;20506;-94
2023/12/05 01:35:01;;;;;;;41.30;20.37;;;;;;;;;;5061643;28;20268;-93
2023/12/05 01:37:27;;;;;;;45.30;22.23;;;;;;;;;;5045637;28;20024;-94
2023/12/05 01:39:52;;;;;;;47.70;21.67;;;;;;;;;;5063782;28;20430;-94
2023/12/05 01:42:17;;;;;;;32.53;16.87;;;;;;;;;;5065287;28;20108;-94
2023/12/05 01:44:42;;;;;;;42.47;21.57;;;;;;;;;;5057574;28;20109;-94
2023/12/05 01:47:09;;;;;;;45.33;23.00;;;;;;;;;;5038646;28;20017;-95
2023/12/05 01:49:34;;;;;;;44.60;22.02;;;;;;;;;;5037523;28;20104;-94
2023/12/05 01:52:00;;;;;;;42.50;20.85;;;;;;;;;;5038049;28;20056;-94
2023/12/05 01:54:27;;;;;;;43.70;19.80;;;;;;;;;;5038380;28;20020;-94
2023/12/05 01:56:54;;;;;;;45.40;20.88;;;;;;;;;;5039242;28;20021;-93
2023/12/05 01:59:19;;;;;;;42.40;19.70;;;;;;;;;;5056179;28;20099;-94
2023/12/05 02:01:45;;;;;;;38.57;19.63;;;;;;;;;;5530976;22;20573;-93
2023/12/05 02:04:10;;;;;;;38.45;18.25;;;;;;;;;;5077335;28;20027;-93
2023/12/05 02:06:35;;;;;;;46.10;21.03;;;;;;;;;;5077994;28;20463;-94
2023/12/05 02:09:01;;;;;;;41.87;19.47;;;;;;;;;;5095618;28;20104;-93
2023/12/05 02:11:26;;;;;;;52.30;22.43;;;;;;;;;;5060644;28;20008;-93
2023/12/05 02:13:52;;;;;;;45.67;20.93;;;;;;;;;;5071772;28;20016;-92
2023/12/05 02:16:30;;;;;;;43.95;21.95;;;;;;;;;;5058821;28;20008;-93
2023/12/05 02:19:15;;;;;;;46.20;20.08;;;;;;;;;;5076036;28;20016;-93
2023/12/05 02:21:43;;;;;;;41.53;19.67;;;;;;;;;;5042973;28;20036;-93
2023/12/05 02:24:23;;;;;;;46.73;21.43;;;;;;;;;;5076278;28;20009;-93
2023/12/05 02:27:02;;;;;;;42.97;20.53;;;;;;;;;;5057883;28;20642;-93
2023/12/05 02:29:28;;;;;;;42.38;20.13;;;;;;;;;;5075685;28;20096;-94
2023/12/05 02:31:54;;;;;;;50.20;22.20;;;;;;;;;;5067046;28;20040;-93
2023/12/05 02:34:20;;;;;;;49.25;22.10;;;;;;;;;;5077724;28;20043;-93
2023/12/05 02:36:59;;;;;;;44.50;21.17;;;;;;;;;;5059541;28;20021;-93
2023/12/05 02:39:30;;;;;;;47.72;22.58;;;;;;;;;;5077098;28;20388;-93
2023/12/05 02:41:56;;;;;;;49.83;22.77;;;;;;;;;;5076789;28;20031;-93
2023/12/05 02:44:26;;;;;;;52.00;21.95;;;;;;;;;;5086215;28;19996;-91
2023/12/05 02:46:52;;;;;;;52.33;22.77;;;;;;;;;;5095872;28;20012;-92
2023/12/05 02:49:17;;;;;;;44.70;21.33;;;;;;;;;;5076304;28;20029;-90
2023/12/05 02:51:43;;;;;;;43.90;21.23;;;;;;;;;;5097460;28;20030;-92
2023/12/05 02:54:08;;;;;;;50.45;22.83;;;;;;;;;;5097782;28;20008;-92
2023/12/05 02:56:37;;;;;;;47.20;21.80;;;;;;;;;;5096063;28;20039;-91
2023/12/05 02:59:03;;;;;;;51.27;23.63;;;;;;;;;;5073703;28;20104;-93
2023/12/05 03:01:28;;;;;;;45.75;20.75;;;;;;;;;;5049056;28;20064;-92
2023/12/05 03:03:53;;;;;;;49.97;21.97;;;;;;;;;;5076392;28;20035;-92
2023/12/05 03:06:19;;;;;;;54.63;23.23;;;;;;;;;;5075867;28;20087;-91
2023/12/05 03:08:44;;;;;;;55.00;24.00;;;;;;;;;;5057958;28;20074;-92
2023/12/05 03:11:09;;;;;;;51.83;23.17;;;;;;;;;;5066274;28;20017;-92
2023/12/05 03:13:37;;;;;;;56.30;25.03;;;;;;;;;;5055261;28;20017;-93
2023/12/05 03:16:03;;;;;;;52.05;24.00;;;;;;;;;;5055315;28;20104;-92
2023/12/05 03:18:28;;;;;;;48.63;22.07;;;;;;;;;;5055496;28;20040;-92
2023/12/05 03:20:53;;;;;;;49.70;21.17;;;;;;;;;;5057034;28;20495;-93
2023/12/05 03:23:18;;;;;;;49.27;22.60;;;;;;;;;;5058366;28;20021;-92
2023/12/05 03:25:44;;;;;;;50.67;22.20;;;;;;;;;;5038252;28;20013;-94
2023/12/05 03:28:09;;;;;;;55.00;22.30;;;;;;;;;;5056540;28;20046;-92
2023/12/05 03:30:34;;;;;;;53.93;23.00;;;;;;;;;;5085672;28;20005;-92
2023/12/05 03:32:59;;;;;;;49.27;22.83;;;;;;;;;;5091348;28;20019;-92
2023/12/05 03:35:24;;;;;;;49.77;21.87;;;;;;;;;;5069340;28;20075;-92
2023/12/05 03:37:50;;;;;;;50.70;22.13;;;;;;;;;;5051105;28;20090;-95
2023/12/05 03:40:15;;;;;;;48.03;21.40;;;;;;;;;;5070297;28;20012;-94
2023/12/05 03:42:40;;;;;;;53.40;23.13;;;;;;;;;;5086749;28;20028;-92
2023/12/05 03:45:05;;;;;;;54.83;22.83;;;;;;;;;;5093719;28;20024;-93
2023/12/05 03:47:31;;;;;;;49.37;22.80;;;;;;;;;;5096678;28;20038;-93
2023/12/05 03:49:56;;;;;;;45.30;21.47;;;;;;;;;;5096078;28;20043;-93
2023/12/05 03:52:21;;;;;;;51.70;22.37;;;;;;;;;;5064539;28;20021;-93
2023/12/05 03:54:46;;;;;;;53.47;22.97;;;;;;;;;;5059284;28;20104;-93
2023/12/05 03:57:12;;;;;;;52.57;23.10;;;;;;;;;;5082027;28;20032;-92
2023/12/05 03:59:37;;;;;;;53.80;22.93;;;;;;;;;;5094890;28;20009;-92
2023/12/05 04:02:02;;;;;;;51.23;21.70;;;;;;;;;;5094284;28;20345;-92
2023/12/05 04:04:27;;;;;;;51.67;23.47;;;;;;;;;;5096628;28;20021;-93
2023/12/05 04:06:53;;;;;;;54.20;23.73;;;;;;;;;;5078125;28;20040;-93
2023/12/05 04:09:18;;;;;;;56.97;23.53;;;;;;;;;;5096688;28;20008;-93
2023/12/05 04:11:43;;;;;;;55.90;24.47;;;;;;;;;;5079322;28;20032;-93
2023/12/05 04:14:08;;;;;;;50.53;22.07;;;;;;;;;;5078887;28;20009;-95
2023/12/05 04:16:35;;;;;;;56.43;24.87;;;;;;;;;;5094866;28;20027;-92
2023/12/05 04:19:00;;;;;;;57.22;24.38;;;;;;;;;;5059829;28;20028;-92
2023/12/05 04:21:26;;;;;;;56.50;24.10;;;;;;;;;;5084231;28;20055;-92
2023/12/05 04:23:51;;;;;;;55.63;23.27;;;;;;;;;;5043426;28;20012;-93
2023/12/05 04:26:18;;;;;;;54.55;24.17;;;;;;;;;;5057759;28;20028;-93
2023/12/05 04:28:43;;;;;;;62.17;26.17;;;;;;;;;;5074918;28;20372;-92
2023/12/05 04:31:09;;;;;;;53.40;24.20;;;;;;;;;;5055771;28;20048;-93
2023/12/05 04:33:34;;;;;;;54.37;23.07;;;;;;;;;;5072959;28;20009;-93
2023/12/05 04:36:00;;;;;;;55.47;24.27;;;;;;;;;;5057066;28;20423;-93
2023/12/05 04:38:26;;;;;;;55.37;23.97;;;;;;;;;;5052468;28;20268;-89
2023/12/05 04:40:51;;;;;;;57.00;24.00;;;;;;;;;;5065209;28;20043;-89
2023/12/05 04:43:16;;;;;;;60.27;24.13;;;;;;;;;;5070923;28;20386;-89
2023/12/05 04:45:42;;;;;;;59.73;24.87;;;;;;;;;;5070940;28;20017;-89
2023/12/05 04:48:08;;;;;;;53.53;22.52;;;;;;;;;;5051780;28;20050;-88
2023/12/05 04:50:33;;;;;;;55.17;25.30;;;;;;;;;;5058238;28;20025;-89
2023/12/05 04:52:58;;;;;;;55.77;24.50;;;;;;;;;;5063821;28;20012;-88
2023/12/05 04:55:23;;;;;;;59.33;24.80;;;;;;;;;;5071416;28;20024;-88
2023/12/05 04:57:49;;;;;;;57.93;23.83;;;;;;;;;;5078945;28;20020;-89
2023/12/05 05:00:14;;;;;;;55.13;22.27;;;;;;;;;;5067753;28;20496;-90
2023/12/05 05:02:39;;;;;;;59.22;25.13;;;;;;;;;;5051554;28;20115;-88
2023/12/05 05:05:05;;;;;;;61.03;24.60;;;;;;;;;;5050579;28;20479;-89
2023/12/05 05:07:30;;;;;;;60.07;25.60;;;;;;;;;;5062244;28;20047;-88
2023/12/05 05:09:55;;;;;;;62.80;25.57;;;;;;;;;;5069769;28;20016;-89
2023/12/05 05:12:20;;;;;;;58.33;23.93;;;;;;;;;;5069285;28;20104;-89
2023/12/05 05:14:46;;;;;;;57.93;24.63;;;;;;;;;;5070823;28;20016;-88
2023/12/05 05:17:11;;;;;;;65.87;24.60;;;;;;;;;;5069893;28;20509;-89
2023/12/05 05:19:36;;;;;;;58.57;23.97;;;;;;;;;;5051975;28;20096;-88
2023/12/05 05:22:01;;;;;;;59.70;24.77;;;;;;;;;;5070572;28;20017;-89
2023/12/05 05:24:26;;;;;;;60.57;23.47;;;;;;;;;;5051151;28;20032;-89
2023/12/05 05:26:52;;;;;;;56.17;22.73;;;;;;;;;;5069509;28;20095;-89
2023/12/05 05:29:17;;;;;;;61.77;23.37;;;;;;;;;;5065926;28;20547;-88
2023/12/05 05:31:42;;;;;;;61.75;23.50;;;;;;;;;;5050148;28;20016;-89
2023/12/05 05:34:07;;;;;;;50.40;19.80;;;;;;;;;;5070217;28;20028;-89
2023/12/05 05:36:33;;;;;;;65.07;25.17;;;;;;;;;;5069039;28;20412;-88
2023/12/05 05:38:58;;;;;;;61.00;23.43;;;;;;;;;;5069639;28;20016;-89
2023/12/05 05:41:23;;;;;;;69.60;25.27;;;;;;;;;;5033230;28;20028;-88
2023/12/05 05:43:48;;;;;;;74.13;22.40;;;;;;;;;;5049584;28;20354;-89
2023/12/05 05:46:13;;;;;;;60.83;23.03;;;;;;;;;;5049667;28;20116;-89
2023/12/05 05:48:39;;;;;;;60.80;22.27;;;;;;;;;;5066603;28;20097;-89
2023/12/05 05:51:04;;;;;;;62.30;23.60;;;;;;;;;;5064421;28;20027;-89
2023/12/05 05:53:30;;;;;;;55.63;21.50;;;;;;;;;;5050173;28;20070;-88
2023/12/05 05:55:55;;;;;;;59.27;22.70;;;;;;;;;;5049233;28;20025;-89
2023/12/05 05:58:20;;;;;;;63.53;22.57;;;;;;;;;;5070225;28;20013;-89
2023/12/05 06:00:45;;;;;;;61.70;22.73;;;;;;;;;;5069204;28;20028;-89
2023/12/05 06:03:10;;;;;;;60.03;22.73;;;;;;;;;;5045347;28;20457;-89
2023/12/05 06:05:36;;;;;;;60.17;22.53;;;;;;;;;;5049330;28;20033;-89
2023/12/05 06:08:01;;;;;;;59.40;23.10;;;;;;;;;;5063054;28;20040;-89
2023/12/05 06:10:27;;;;;;;61.27;23.30;;;;;;;;;;5067045;28;20021;-89
2023/12/05 06:12:52;;;;;;;57.92;22.48;;;;;;;;;;5071455;28;20360;-90
2023/12/05 06:15:17;;;;;;;55.43;21.27;;;;;;;;;;5069457;28;20009;-89
2023/12/05 06:17:42;;;;;;;60.33;23.63;;;;;;;;;;5070198;28;20024;-89
2023/12/05 06:20:08;;;;;;;57.20;22.80;;;;;;;;;;5069677;28;20047;-91
2023/12/05 06:22:33;;;;;;;63.22;22.35;;;;;;;;;;5038956;28;20024;-90
2023/12/05 06:24:59;;;;;;;57.10;21.43;;;;;;;;;;5072813;28;20025;-90
2023/12/05 06:27:24;;;;;;;67.07;24.00;;;;;;;;;;5072682;28;20494;-89
2023/12/05 06:29:49;;;;;;;64.70;23.13;;;;;;;;;;5073090;28;20554;-89
2023/12/05 06:32:14;;;;;;;63.00;21.90;;;;;;;;;;5048101;28;20013;-88
2023/12/05 06:34:39;;;;;;;53.70;20.33;;;;;;;;;;5060351;28;20032;-88
2023/12/05 06:37:04;;;;;;;63.63;22.63;;;;;;;;;;5073727;28;20017;-90
2023/12/05 06:39:30;;;;;;;65.57;23.23;;;;;;;;;;5072304;28;20023;-91
2023/12/05 06:41:55;;;;;;;68.13;23.73;;;;;;;;;;5063077;28;20121;-88
2023/12/05 06:44:20;;;;;;;76.77;25.47;;;;;;;;;;5059687;28;20009;-89
2023/12/05 06:46:45;;;;;;;68.00;23.13;;;;;;;;;;5055650;28;20025;-92
2023/12/05 06:49:10;;;;;;;67.03;24.30;;;;;;;;;;5064693;28;20023;-92
2023/12/05 06:51:36;;;;;;;72.72;24.58;;;;;;;;;;5073807;28;20016;-92
2023/12/05 06:54:08;;;;;;;72.13;24.93;;;;;;;;;;5073963;28;20500;-95
2023/12/05 06:56:33;;;;;;;70.90;22.57;;;;;;;;;;5069541;28;20099;-93
2023/12/05 06:59:00;;;;;;;71.87;23.40;;;;;;;;;;5065970;28;20305;-92
2023/12/05 07:01:26;;;;;;;64.90;23.40;;;;;;;;;;5073840;28;20033;-92
2023/12/05 07:03:51;;;;;;;77.65;26.30;;;;;;;;;;5073713;28;20528;-93
2023/12/05 07:06:23;;;;;;;65.23;21.67;;;;;;;;;;5059489;28;20025;-93
2023/12/05 07:08:49;;;;;;;66.07;22.35;;;;;;;;;;5073953;28;20054;-94
2023/12/05 07:11:14;;;;;;;64.50;22.07;;;;;;;;;;5056506;28;20009;-93
2023/12/05 07:13:39;;;;;;;64.40;21.73;;;;;;;;;;5074039;28;20052;-91
2023/12/05 07:16:05;;;;;;;65.30;21.57;;;;;;;;;;5059526;28;20013;-93
2023/12/05 07:18:30;;;;;;;66.43;21.10;;;;;;;;;;5060398;28;20266;-92
2023/12/05 07:20:55;;;;;;;64.07;22.07;;;;;;;;;;5054433;28;20115;-95
2023/12/05 07:23:20;;;;;;;62.37;21.67;;;;;;;;;;5074614;28;20020;-88
2023/12/05 07:25:46;;;;;;;65.63;22.97;;;;;;;;;;5068711;28;20087;-87
2023/12/05 07:28:11;;;;;;;71.07;21.43;;;;;;;;;;5062882;28;20058;-87
2023/12/05 07:30:36;;;;;;;64.50;21.60;;;;;;;;;;5060910;28;20027;-86
2023/12/05 07:33:01;;;;;;;63.43;21.17;;;;;;;;;;5054277;28;20618;-86
2023/12/05 07:35:26;;;;;;;65.97;21.80;;;;;;;;;;5039437;28;20090;-86
2023/12/05 07:37:52;;;;;;;68.37;22.83;;;;;;;;;;5056613;28;20032;-87
2023/12/05 07:40:17;;;;;;;62.57;22.20;;;;;;;;;;5067571;28;20032;-87
2023/12/05 07:42:44;;;;;;;69.27;21.77;;;;;;;;;;5070716;28;20031;-87
2023/12/05 07:45:09;;;;;;;70.50;22.27;;;;;;;;;;5071682;28;20042;-87
2023/12/05 07:47:34;;;;;;;63.63;21.80;;;;;;;;;;5070136;28;20645;-87
2023/12/05 07:49:59;;;;;;;61.07;21.50;;;;;;;;;;5071029;28;20146;-87
2023/12/05 07:52:25;;;;;;;67.47;22.13;;;;;;;;;;5052903;28;20029;-87
2023/12/05 07:54:50;;;;;;;68.65;22.95;;;;;;;;;;5070694;28;20074;-87
2023/12/05 07:57:22;;;;;;;61.03;20.73;;;;;;;;;;5071259;28;20040;-87
2023/12/05 07:59:47;;;;;;;66.73;22.33;;;;;;;;;;5070510;28;20024;-87
2023/12/05 08:02:12;;;;;;;66.60;21.23;;;;;;;;;;5070533;28;20032;-87
2023/12/05 08:04:38;;;;;;;65.43;21.90;;;;;;;;;;5070895;28;20016;-87
2023/12/05 08:07:03;;;;;;;70.30;20.30;;;;;;;;;;5068807;28;20031;-88
2023/12/05 08:09:28;;;;;;;74.93;23.07;;;;;;;;;;5053216;28;20741;-87
2023/12/05 08:11:53;;;;;;;71.13;22.57;;;;;;;;;;5069718;28;20039;-87
2023/12/05 08:14:18;;;;;;;68.43;23.07;;;;;;;;;;5078670;28;20664;-87
2023/12/05 08:16:44;;;;;;;76.77;23.90;;;;;;;;;;5070912;28;20081;-87
2023/12/05 08:19:09;;;;;;;68.47;22.80;;;;;;;;;;5070533;28;20104;-87
2023/12/05 08:21:34;;;;;;;67.87;22.60;;;;;;;;;;5056207;28;20025;-87
2023/12/05 08:23:59;;;;;;;72.67;22.30;;;;;;;;;;5050921;28;20472;-87
2023/12/05 08:26:24;;;;;;;75.30;23.40;;;;;;;;;;5050666;28;20040;-87
2023/12/05 08:28:50;;;;;;;72.17;21.97;;;;;;;;;;5050754;28;20017;-87
2023/12/05 08:31:15;;;;;;;81.80;24.93;;;;;;;;;;5049791;28;20079;-87
2023/12/05 08:33:40;;;;;;;82.50;24.60;;;;;;;;;;5050558;28;20048;-87
2023/12/05 08:36:05;;;;;;;78.67;23.00;;;;;;;;;;5050158;28;20036;-87
2023/12/05 08:38:31;;;;;;;77.23;23.57;;;;;;;;;;5068994;28;20020;-88
2023/12/05 08:40:56;;;;;;;76.23;23.37;;;;;;;;;;5053332;28;20107;-88
2023/12/05 08:43:22;;;;;;;79.57;23.48;;;;;;;;;;5052906;28;20028;-87
2023/12/05 08:45:48;;;;;;;70.47;22.83;;;;;;;;;;5070239;28;20024;-87
2023/12/05 08:48:13;;;;;;;71.87;24.13;;;;;;;;;;5051171;28;20043;-87
2023/12/05 08:50:39;;;;;;;81.07;23.87;;;;;;;;;;5067700;28;20484;-87
2023/12/05 08:53:04;;;;;;;78.00;24.58;;;;;;;;;;5043629;28;20066;-87
2023/12/05 08:55:29;;;;;;;81.77;25.00;;;;;;;;;;5056140;28;20025;-87
2023/12/05 08:57:55;;;;;;;76.17;24.33;;;;;;;;;;5032199;28;20033;-86
2023/12/05 09:00:21;;;;;;;89.15;26.17;;;;;;;;;;5037441;28;20028;-86
2023/12/05 09:02:47;;;;;;;78.88;25.13;;;;;;;;;;5040096;28;20071;-87
2023/12/05 09:05:12;;;;;;;73.03;23.53;;;;;;;;;;5032301;28;20451;-89
2023/12/05 09:07:37;;;;;;;84.70;25.27;;;;;;;;;;5056321;28;20024;-89
2023/12/05 09:10:03;;;;;;;69.27;23.43;;;;;;;;;;5050979;28;20091;-88
2023/12/05 09:12:29;;;;;;;82.68;24.67;;;;;;;;;;5050266;28;20068;-89
2023/12/05 09:14:54;;;;;;;81.23;26.10;;;;;;;;;;5034697;28;20444;-90
2023/12/05 09:17:20;;;;;;;99.63;28.17;;;;;;;;;;5051108;28;20031;-88
2023/12/05 09:19:45;;;;;;;81.32;24.42;;;;;;;;;;5068227;28;20024;-87
2023/12/05 09:22:10;;;;;;;82.10;24.40;;;;;;;;;;5069578;28;20032;-87
2023/12/05 09:24:36;;;;;;;87.60;25.47;;;;;;;;;;5050038;28;20021;-87
2023/12/05 09:27:01;;;;;;;92.77;26.40;;;;;;;;;;5063592;28;20035;-87
2023/12/05 09:29:27;;;;;;;84.83;25.40;;;;;;;;;;5054460;28;20040;-87
2023/12/05 09:31:52;;;;;;;84.80;24.38;;;;;;;;;;5043896;28;20024;-87
2023/12/05 09:34:18;;;;;;;85.63;23.43;;;;;;;;;;5068193;28;20069;-87
2023/12/05 09:36:44;;;;;;;73.68;22.67;;;;;;;;;;5048604;28;20500;-87
2023/12/05 09:39:10;;;;;;;89.10;24.30;;;;;;;;;;5037202;28;20028;-86
2023/12/05 09:41:38;;;;;;;72.43;23.98;;;;;;;;;;5051636;28;20096;-87
2023/12/05 09:44:04;;;;;;;78.10;22.95;;;;;;;;;;5068961;28;20017;-87
2023/12/05 09:46:29;;;;;;;77.27;22.80;;;;;;;;;;5069792;28;20103;-87
2023/12/05 09:48:59;;;;;;;68.77;22.70;;;;;;;;;;5068683;28;20528;-87
2023/12/05 09:51:24;;;;;;;79.70;22.58;;;;;;;;;;5051260;28;20031;-87
2023/12/05 09:53:50;;;;;;;73.57;23.77;;;;;;;;;;5070131;28;20012;-87
2023/12/05 09:56:16;;;;;;;85.60;24.05;;;;;;;;;;5050811;28;20059;-89
2023/12/05 09:58:44;;;;;;;84.60;23.07;;;;;;;;;;5073114;28;20044;-87
2023/12/05 10:01:11;;;;;;;70.00;21.88;;;;;;;;;;5051098;28;20040;-87
2023/12/05 10:03:38;;;;;;;75.53;22.70;;;;;;;;;;5053221;28;20381;-86
2023/12/05 10:06:05;;;;;;;80.43;22.52;;;;;;;;;;5061675;28;20027;-86
2023/12/05 10:08:31;;;;;;;80.60;23.40;;;;;;;;;;5072808;28;20499;-87
2023/12/05 10:10:59;;;;;;;83.70;24.80;;;;;;;;;;5072407;28;20020;-87
2023/12/05 10:13:24;;;;;;;100.35;26.38;;;;;;;;;;5072666;28;20021;-87
2023/12/05 10:15:50;;;;;;;88.63;23.97;;;;;;;;;;5072448;28;20024;-87
2023/12/05 10:18:15;;;;;;;92.47;25.85;;;;;;;;;;5064163;28;20033;-87
2023/12/05 10:20:40;;;;;;;95.80;26.27;;;;;;;;;;5069998;28;20027;-87
2023/12/05 10:23:05;;;;;;;109.70;28.70;;;;;;;;;;5055489;28;20029;-86
2023/12/05 10:25:30;;;;;;;85.13;24.97;;;;;;;;;;5069627;28;20021;-87
2023/12/05 10:28:00;;;;;;;102.33;25.50;;;;;;;;;;5069118;28;20112;-86
2023/12/05 10:30:37;;;;;;;89.20;25.42;;;;;;;;;;5044174;28;20028;-86
2023/12/05 10:33:09;;;;;;;78.68;24.23;;;;;;;;;;5049899;28;20033;-85
2023/12/05 10:35:34;;;;;;;87.53;25.30;;;;;;;;;;5037989;28;20082;-86
2023/12/05 10:38:06;;;;;;;107.75;26.00;;;;;;;;;;5056555;28;20028;-86
2023/12/05 10:40:48;;;;;;;87.30;23.77;;;;;;;;;;5053722;28;20032;-86
2023/12/05 10:43:13;;;;;;;81.88;24.55;;;;;;;;;;5071873;28;20116;-85
2023/12/05 10:45:38;;;;;;;96.30;23.83;;;;;;;;;;5071561;28;20535;-85
2023/12/05 10:48:04;;;;;;;78.50;23.90;;;;;;;;;;5041172;28;20024;-86
2023/12/05 10:50:30;;;;;;;73.60;23.38;;;;;;;;;;5054935;28;20086;-86
2023/12/05 10:52:55;;;;;;;70.03;21.47;;;;;;;;;;5042504;28;20043;-85
2023/12/05 10:55:24;;;;;;;67.28;21.58;;;;;;;;;;5061559;28;20094;-85
2023/12/05 10:57:49;;;;;;;72.65;21.27;;;;;;;;;;5068308;28;20043;-85
2023/12/05 11:00:15;;;;;;;53.33;19.77;;;;;;;;;;5045258;28;20471;-85
2023/12/05 11:02:40;;;;;;;55.80;19.60;;;;;;;;;;5064939;28;20094;-85
2023/12/05 11:05:08;;;;;;;55.50;19.60;;;;;;;;;;5063565;28;20028;-85
2023/12/05 11:07:33;;;;;;;56.67;19.33;;;;;;;;;;5054093;28;20267;-84
2023/12/05 11:09:58;;;;;;;53.27;18.70;;;;;;;;;;5071924;28;20383;-86
2023/12/05 11:12:24;;;;;;;55.10;18.48;;;;;;;;;;5063016;28;20065;-86
2023/12/05 11:14:51;;;;;;;51.73;17.93;;;;;;;;;;5056964;28;20028;-88
2023/12/05 11:17:19;;;;;;;48.93;17.70;;;;;;;;;;5065337;28;20115;-87
2023/12/05 11:20:02;;;;;;;48.83;17.95;;;;;;;;;;5039564;28;20028;-87
2023/12/05 11:22:46;;;;;;;54.22;19.40;;;;;;;;;;5052367;28;20041;-88
2023/12/05 11:25:11;;;;;;;47.80;17.63;;;;;;;;;;5060581;28;20111;-87
2023/12/05 11:27:36;;;;;;;49.17;18.57;;;;;;;;;;5071091;28;20115;-87
2023/12/05 11:30:10;;;;;;;40.53;16.80;;;;;;;;;;5071222;28;20017;-87
2023/12/05 11:32:48;;;;;;;44.15;15.77;;;;;;;;;;5071694;28;20030;-86
2023/12/05 11:35:33;;;;;;;43.38;15.90;;;;;;;;;;5061271;28;20387;-86
2023/12/05 11:38:06;;;;;;;34.03;14.73;;;;;;;;;;5070422;28;20036;-85
2023/12/05 11:40:31;;;;;;;41.17;14.65;;;;;;;;;;5054875;28;20028;-86
2023/12/05 11:43:04;;;;;;;39.40;16.10;;;;;;;;;;5054610;28;20033;-86
2023/12/05 11:45:29;;;;;;;40.60;17.67;;;;;;;;;;5071914;28;20059;-86
2023/12/05 11:47:57;;;;;;;43.70;16.93;;;;;;;;;;5052076;28;20040;-86
2023/12/05 11:50:22;;;;;;;38.20;16.33;;;;;;;;;;5068011;28;20109;-86
2023/12/05 11:52:49;;;;;;;39.73;15.53;;;;;;;;;;5040627;28;20024;-86
2023/12/05 11:55:14;;;;;;;38.08;15.63;;;;;;;;;;5034572;28;20492;-86
2023/12/05 11:57:40;;;;;;;40.20;15.57;;;;;;;;;;5048262;28;20066;-87
2023/12/05 12:00:06;;;;;;;28.53;11.87;;;;;;;;;;5071517;28;20020;-86
2023/12/05 12:02:31;;;;;;;28.63;12.57;;;;;;;;;;5072047;28;20089;-86
2023/12/05 12:05:00;;;;;;;32.57;13.30;;;;;;;;;;5064111;28;20029;-86
2023/12/05 12:07:26;;;;;;;33.53;13.25;;;;;;;;;;5048404;28;20032;-86
2023/12/05 12:09:51;;;;;;;39.87;14.80;;;;;;;;;;5053047;28;20074;-86
2023/12/05 12:12:16;;;;;;;38.10;14.73;;;;;;;;;;5069658;28;20058;-86
2023/12/05 12:14:42;;;;;;;42.83;16.33;;;;;;;;;;5059955;28;20082;-86
2023/12/05 12:17:11;;;;;;;43.83;14.80;;;;;;;;;;5069134;28;20293;-86
2023/12/05 12:19:37;;;;;;;51.50;17.85;;;;;;;;;;5059041;28;20024;-85
2023/12/05 12:22:06;;;;;;;47.53;17.65;;;;;;;;;;5064573;28;20566;-87
2023/12/05 12:24:33;;;;;;;54.50;18.50;;;;;;;;;;5060912;28;20075;-87
2023/12/05 12:26:58;;;;;;;59.88;18.27;;;;;;;;;;5054920;28;20049;-86
2023/12/05 12:29:24;;;;;;;63.17;20.43;;;;;;;;;;5051934;28;20027;-90
2023/12/05 12:31:52;;;;;;;55.20;18.20;;;;;;;;;;5064944;28;20017;-88
2023/12/05 12:34:29;;;;;;;64.25;17.60;;;;;;;;;;5054503;28;20032;-87
2023/12/05 12:36:56;;;;;;;65.45;19.73;;;;;;;;;;5072028;28;20024;-88
2023/12/05 12:39:33;;;;;;;57.10;19.10;;;;;;;;;;5055097;28;20033;-87
2023/12/05 12:42:00;;;;;;;64.73;19.30;;;;;;;;;;5063191;28;20055;-87
2023/12/05 12:44:26;;;;;;;64.47;19.35;;;;;;;;;;5058879;28;20052;-86
2023/12/05 12:46:51;;;;;;;60.92;18.65;;;;;;;;;;5068268;28;20037;-87
2023/12/05 12:49:16;;;;;;;65.73;18.83;;;;;;;;;;5066240;28;20063;-85
2023/12/05 12:51:41;;;;;;;60.70;19.53;;;;;;;;;;5068199;28;20024;-85
2023/12/05 12:54:07;;;;;;;63.30;19.93;;;;;;;;;;5066298;28;20099;-86
2023/12/05 12:56:33;;;;;;;52.72;20.13;;;;;;;;;;5056853;28;20024;-85
2023/12/05 12:58:59;;;;;;;63.43;22.20;;;;;;;;;;5065181;28;20086;-85
2023/12/05 13:01:25;;;;;;;74.77;22.27;;;;;;;;;;5045206;28;20299;-85
2023/12/05 13:03:52;;;;;;;68.97;21.83;;;;;;;;;;5069053;28;20017;-85
2023/12/05 13:06:17;;;;;;;67.35;18.83;;;;;;;;;;5051735;28;20387;-85
2023/12/05 13:08:43;;;;;;;75.67;21.47;;;;;;;;;;5069969;28;20020;-85
2023/12/05 13:11:08;;;;;;;65.50;19.33;;;;;;;;;;5069287;28;20040;-86
2023/12/05 13:13:33;;;;;;;70.13;21.43;;;;;;;;;;5069548;28;20450;-85
2023/12/05 13:16:00;;;;;;;68.17;20.33;;;;;;;;;;5042537;28;20032;-85
2023/12/05 13:18:39;;;;;;;76.82;20.90;;;;;;;;;;5050470;28;20070;-85
2023/12/05 13:21:05;;;;;;;77.35;20.63;;;;;;;;;;5069080;28;20025;-85
2023/12/05 13:23:30;;;;;;;63.80;19.48;;;;;;;;;;5052385;28;20456;-85
2023/12/05 13:25:56;;;;;;;68.37;19.43;;;;;;;;;;5051142;28;20074;-85
2023/12/05 13:28:23;;;;;;;72.10;19.55;;;;;;;;;;5064605;28;20013;-85
2023/12/05 13:30:48;;;;;;;65.80;20.17;;;;;;;;;;5042972;28;20036;-85
2023/12/05 13:33:15;;;;;;;76.30;19.93;;;;;;;;;;5054861;28;20016;-85
2023/12/05 13:35:41;;;;;;;62.85;17.67;;;;;;;;;;5053495;28;20017;-85
2023/12/05 13:38:07;;;;;;;61.53;18.63;;;;;;;;;;5064977;28;20047;-85
2023/12/05 13:40:32;;;;;;;68.88;19.60;;;;;;;;;;5072521;28;20030;-85
2023/12/05 13:42:57;;;;;;;64.37;20.53;;;;;;;;;;5072273;28;20021;-86
2023/12/05 13:45:23;;;;;;;63.57;19.70;;;;;;;;;;5071372;28;20074;-86
2023/12/05 13:47:48;;;;;;;59.30;19.53;;;;;;;;;;5071927;28;20039;-85
2023/12/05 13:50:13;;;;;;;72.60;21.30;;;;;;;;;;5064743;28;20048;-87
2023/12/05 13:52:39;;;;;;;63.57;20.53;;;;;;;;;;5072125;28;20337;-89
2023/12/05 13:57:41;;;;;;;72.10;21.25;;;;;;;;;;5714222;22;20055;-88
2023/12/05 14:00:34;;;;;;;72.07;22.25;;;;;;;;;;5038655;28;20029;-93
2023/12/05 14:03:09;;;;;;;75.47;22.65;;;;;;;;;;5035322;28;20040;-92
2023/12/05 14:05:45;;;;;;;70.63;23.00;;;;;;;;;;5036869;28;20025;-90
2023/12/05 14:08:18;;;;;;;69.27;21.33;;;;;;;;;;5034177;28;20028;-93
2023/12/05 14:10:43;;;;;;;64.43;20.50;;;;;;;;;;5016754;28;20018;-89
2023/12/05 14:13:09;;;;;;;69.10;21.93;;;;;;;;;;5034886;28;20536;-92